createdAt,value
2023-05-14T00:00:49.506Z,718.03
2023-05-14T00:03:19.420Z,721.00
2023-05-14T00:05:47.894Z,700.25
2023-05-14T00:08:16.245Z,716.22
2023-05-14T00:10:44.632Z,668.58
2023-05-14T00:13:13.154Z,716.17
2023-05-14T00:15:41.693Z,713.95
2023-05-14T00:18:12.083Z,642.92
2023-05-14T00:20:42.643Z,725.65
2023-05-14T00:23:11.041Z,717.75
2023-05-14T00:25:39.409Z,725.40
2023-05-14T00:28:07.748Z,678.75
2023-05-14T00:30:36.226Z,724.33
2023-05-14T00:33:05.511Z,727.70
2023-05-14T00:35:35.285Z,710.88
2023-05-14T00:38:05.261Z,668.50
2023-05-14T00:40:34.045Z,716.10
2023-05-14T00:43:02.378Z,696.50
2023-05-14T00:45:30.888Z,670.83
2023-05-14T00:47:59.302Z,651.05
2023-05-14T00:50:27.853Z,692.70
2023-05-14T00:52:57.770Z,702.90
2023-05-14T00:55:28.123Z,709.08
2023-05-14T00:57:58.279Z,704.28
2023-05-14T01:00:26.621Z,649.00
2023-05-14T01:02:55.064Z,687.75
2023-05-14T01:05:24.532Z,656.30
2023-05-14T01:08:01.663Z,719.33
2023-05-14T01:10:49.938Z,707.83
2023-05-14T01:13:23.132Z,716.85
2023-05-14T01:15:51.504Z,715.22
2023-05-14T01:18:20.407Z,713.60
2023-05-14T01:20:52.151Z,692.83
2023-05-14T01:23:22.252Z,726.05
2023-05-14T01:25:50.660Z,711.03
2023-05-14T01:28:20.080Z,658.53
2023-05-14T01:30:53.790Z,665.78
2023-05-14T01:33:24.003Z,725.35
2023-05-14T01:35:53.655Z,687.03
2023-05-14T01:38:23.559Z,679.55
2023-05-14T01:40:52.314Z,701.95
2023-05-14T01:43:20.922Z,680.42
2023-05-14T01:45:49.621Z,662.75
2023-05-14T01:48:17.992Z,662.55
2023-05-14T01:50:46.393Z,639.10
2023-05-14T01:53:14.803Z,663.78
2023-05-14T01:55:44.505Z,683.90
2023-05-14T01:58:12.810Z,656.55
2023-05-14T02:00:41.379Z,657.67
2023-05-14T02:03:09.900Z,650.10
2023-05-14T02:05:38.299Z,659.60
2023-05-14T02:08:06.980Z,635.83
2023-05-14T02:10:35.340Z,665.28
2023-05-14T02:13:05.094Z,644.15
2023-05-14T02:15:33.703Z,646.03
2023-05-14T02:18:03.801Z,663.38
2023-05-14T02:20:32.232Z,645.60
2023-05-14T02:23:00.646Z,647.30
2023-05-14T02:25:29.018Z,653.17
2023-05-14T02:27:57.370Z,648.22
2023-05-14T02:30:27.102Z,648.92
2023-05-14T02:32:55.521Z,670.88
2023-05-14T02:35:24.216Z,682.72
2023-05-14T02:37:52.588Z,674.78
2023-05-14T02:40:21.044Z,669.70
2023-05-14T02:42:49.401Z,633.53
2023-05-14T02:45:17.884Z,658.72
2023-05-14T02:47:47.668Z,642.13
2023-05-14T02:50:16.074Z,633.05
2023-05-14T02:52:44.428Z,651.00
2023-05-14T02:55:13.034Z,661.10
2023-05-14T02:57:41.383Z,634.60
2023-05-14T03:00:10.972Z,649.03
2023-05-14T03:02:39.668Z,671.45
2023-05-14T03:05:10.581Z,668.75
2023-05-14T03:07:38.934Z,677.25
2023-05-14T03:10:08.451Z,649.92
2023-05-14T03:12:36.774Z,654.03
2023-05-14T03:15:05.494Z,676.65
2023-05-14T03:17:38.575Z,664.33
2023-05-14T03:20:09.419Z,707.13
2023-05-14T03:22:37.735Z,648.90
2023-05-14T03:25:06.755Z,704.42
2023-05-14T03:27:35.079Z,660.65
2023-05-14T03:30:03.680Z,663.38
2023-05-14T03:32:32.123Z,714.60
2023-05-14T03:35:00.481Z,720.45
2023-05-14T03:37:30.461Z,709.95
2023-05-14T03:39:58.772Z,659.80
2023-05-14T03:42:27.161Z,723.45
2023-05-14T03:44:55.500Z,698.53
2023-05-14T03:47:23.845Z,713.88
2023-05-14T03:49:52.259Z,723.53
2023-05-14T03:52:20.629Z,717.97
2023-05-14T03:54:50.325Z,699.17
2023-05-14T03:57:18.675Z,683.70
2023-05-14T03:59:46.992Z,724.30
2023-05-14T04:02:15.560Z,686.97
2023-05-14T04:04:43.995Z,715.55
2023-05-14T04:07:12.356Z,708.47
2023-05-14T04:09:40.708Z,700.45
2023-05-14T04:12:10.938Z,722.42
2023-05-14T04:14:39.356Z,706.58
2023-05-14T04:17:07.691Z,714.83
2023-05-14T04:19:36.027Z,726.75
2023-05-14T04:22:04.457Z,707.25
2023-05-14T04:24:32.810Z,705.63
2023-05-14T04:27:01.757Z,693.63
2023-05-14T04:29:31.945Z,720.75
2023-05-14T04:32:00.908Z,670.53
2023-05-14T04:34:29.643Z,713.88
2023-05-14T04:36:57.979Z,721.53
2023-05-14T04:39:26.640Z,711.85
2023-05-14T04:41:54.959Z,717.45
2023-05-14T04:44:23.368Z,720.88
2023-05-14T04:46:53.043Z,709.88
2023-05-14T04:49:21.820Z,701.55
2023-05-14T04:51:50.355Z,714.67
2023-05-14T04:54:18.803Z,711.38
2023-05-14T04:56:47.675Z,699.67
2023-05-14T04:59:16.416Z,716.53
2023-05-14T05:01:45.356Z,724.38
2023-05-14T05:04:15.578Z,706.92
2023-05-14T05:06:43.954Z,688.28
2023-05-14T05:09:12.374Z,675.13
2023-05-14T05:11:40.782Z,713.35
2023-05-14T05:14:11.204Z,678.05
2023-05-14T05:16:39.624Z,653.63
2023-05-14T05:19:08.674Z,697.45
2023-05-14T05:21:40.248Z,671.05
2023-05-14T05:24:08.976Z,690.20
2023-05-14T05:26:37.677Z,668.05
2023-05-14T05:29:06.429Z,659.83
2023-05-14T05:31:35.039Z,726.25
2023-05-14T05:34:03.719Z,695.38
2023-05-14T05:36:32.143Z,698.83
2023-05-14T05:39:01.940Z,737.25
2023-05-14T05:41:31.082Z,668.58
2023-05-14T05:43:59.508Z,686.83
2023-05-14T05:46:28.243Z,667.78
2023-05-14T05:48:56.640Z,739.70
2023-05-14T05:51:24.968Z,666.03
2023-05-14T05:53:53.323Z,703.60
2023-05-14T05:56:23.045Z,687.53
2023-05-14T05:58:51.592Z,664.08
2023-05-14T06:01:19.972Z,654.50
2023-05-14T06:03:48.834Z,693.88
2023-05-14T06:06:17.277Z,696.85
2023-05-14T06:08:45.657Z,671.08
2023-05-14T06:11:14.034Z,675.38
2023-05-14T06:13:43.797Z,660.22
2023-05-14T06:16:12.210Z,681.50
2023-05-14T06:18:40.681Z,694.00
2023-05-14T06:21:09.230Z,692.22
2023-05-14T06:23:37.750Z,718.80
2023-05-14T06:26:06.379Z,721.33
2023-05-14T06:28:35.338Z,692.95
2023-05-14T06:31:05.102Z,751.50
2023-05-14T06:33:33.451Z,730.47
2023-05-14T06:36:04.182Z,688.88
2023-05-14T06:38:32.569Z,714.67
2023-05-14T06:41:00.970Z,680.38
2023-05-14T06:43:29.577Z,690.72
2023-05-14T06:45:57.909Z,693.03
2023-05-14T06:48:29.384Z,687.58
2023-05-14T06:50:57.910Z,693.53
2023-05-14T06:53:26.240Z,687.08
2023-05-14T06:55:54.633Z,728.17
2023-05-14T06:58:22.952Z,744.92
2023-05-14T07:00:51.277Z,712.95
2023-05-14T07:03:19.691Z,825.67
2023-05-14T07:05:49.438Z,745.65
2023-05-14T07:08:17.834Z,767.00
2023-05-14T07:10:46.189Z,731.78
2023-05-14T07:13:14.569Z,742.80
2023-05-14T07:15:42.894Z,720.78
2023-05-14T07:18:11.597Z,731.15
2023-05-14T07:20:40.019Z,738.40
2023-05-14T07:23:09.803Z,723.30
2023-05-14T07:25:38.212Z,729.15
2023-05-14T07:28:07.169Z,765.05
2023-05-14T07:30:35.516Z,685.65
2023-05-14T07:33:04.088Z,735.20
2023-05-14T07:35:41.780Z,705.25
2023-05-14T07:38:13.864Z,697.33
2023-05-14T07:40:42.254Z,719.42
2023-05-14T07:43:11.351Z,734.10
2023-05-14T07:45:40.373Z,718.65
2023-05-14T07:48:09.097Z,690.08
2023-05-14T07:50:38.069Z,701.20
2023-05-14T07:53:06.762Z,714.85
2023-05-14T07:55:36.672Z,726.00
2023-05-14T07:58:05.134Z,687.45
2023-05-14T08:00:42.827Z,715.47
2023-05-14T08:03:11.429Z,716.85
2023-05-14T08:05:40.245Z,722.38
2023-05-14T08:08:08.733Z,709.53
2023-05-14T08:10:38.655Z,717.67
2023-05-14T08:13:07.208Z,717.78
2023-05-14T08:15:36.200Z,773.83
2023-05-14T08:18:04.833Z,780.10
2023-05-14T08:20:33.509Z,740.45
2023-05-14T08:23:02.234Z,766.40
2023-05-14T08:25:31.012Z,729.35
2023-05-14T08:28:04.029Z,731.50
2023-05-14T08:30:32.995Z,734.20
2023-05-14T08:33:01.746Z,716.75
2023-05-14T08:35:30.596Z,725.92
2023-05-14T08:37:58.898Z,701.97
2023-05-14T08:40:28.001Z,731.40
2023-05-14T08:42:59.810Z,700.53
2023-05-14T08:45:34.259Z,724.17
2023-05-14T08:48:05.134Z,766.30
2023-05-14T08:50:33.807Z,738.53
2023-05-14T08:53:02.130Z,736.38
2023-05-14T08:55:30.619Z,741.28
2023-05-14T08:58:01.486Z,741.03
2023-05-14T09:00:31.430Z,745.20
2023-05-14T09:03:01.123Z,723.25
2023-05-14T09:05:29.885Z,742.72
2023-05-14T09:07:58.270Z,740.10
2023-05-14T09:10:29.740Z,769.90
2023-05-14T09:12:58.223Z,705.03
2023-05-14T09:15:27.254Z,731.58
2023-05-14T09:17:57.482Z,723.05
2023-05-14T09:20:26.816Z,749.63
2023-05-14T09:22:56.604Z,730.03
2023-05-14T09:25:28.747Z,688.75
2023-05-14T09:27:58.985Z,724.15
2023-05-14T09:30:27.786Z,736.45
2023-05-14T09:32:57.530Z,790.30
2023-05-14T09:35:26.490Z,740.00
2023-05-14T09:37:55.847Z,717.03
2023-05-14T09:40:25.583Z,759.90
2023-05-14T09:42:57.453Z,752.60
2023-05-14T09:45:27.547Z,725.53
2023-05-14T09:47:57.688Z,724.08
2023-05-14T09:50:26.680Z,699.90
2023-05-14T09:52:57.189Z,702.17
2023-05-14T09:55:25.764Z,801.80
2023-05-14T09:57:54.219Z,699.33
2023-05-14T10:00:28.412Z,713.10
2023-05-14T10:03:01.823Z,665.03
2023-05-14T10:05:31.227Z,678.97
2023-05-14T10:08:01.124Z,709.17
2023-05-14T10:10:31.797Z,703.85
2023-05-14T10:13:04.505Z,663.75
2023-05-14T10:15:40.087Z,692.38
2023-05-14T10:18:13.116Z,761.85
2023-05-14T10:20:42.085Z,685.70
2023-05-14T10:23:10.744Z,694.58
2023-05-14T10:25:39.340Z,700.85
2023-05-14T10:28:08.008Z,696.78
2023-05-14T10:30:36.426Z,683.70
2023-05-14T10:33:14.396Z,658.03
2023-05-14T10:36:04.468Z,699.22
2023-05-14T10:38:35.018Z,781.85
2023-05-14T10:41:04.731Z,711.10
2023-05-14T10:43:39.799Z,790.80
2023-05-14T10:46:08.865Z,693.53
2023-05-14T10:48:38.952Z,704.30
2023-05-14T10:51:09.272Z,714.00
2023-05-14T10:53:38.685Z,732.90
2023-05-14T10:56:09.116Z,703.38
2023-05-14T11:06:35.555Z,687.08
2023-05-14T11:09:04.718Z,684.83
2023-05-14T11:11:33.490Z,697.50
2023-05-14T11:14:05.980Z,716.17
2023-05-14T11:16:53.286Z,703.55
2023-05-14T11:19:23.753Z,688.15
2023-05-14T11:21:54.150Z,690.45
2023-05-14T11:24:23.229Z,715.40
2023-05-14T11:26:53.176Z,679.83
2023-05-14T11:29:22.031Z,716.58
2023-05-14T11:31:50.817Z,689.53
2023-05-14T11:34:19.220Z,698.88
2023-05-14T11:36:47.657Z,779.05
2023-05-14T11:39:21.019Z,815.05
2023-05-14T11:41:49.412Z,706.50
2023-05-14T11:44:17.876Z,714.15
2023-05-14T11:46:56.136Z,724.78
2023-05-14T11:49:25.025Z,716.00
2023-05-14T11:51:59.123Z,745.83
2023-05-14T11:54:29.697Z,749.65
2023-05-14T11:56:58.437Z,772.22
2023-05-14T11:59:27.570Z,801.20
2023-05-14T12:01:56.337Z,749.40
2023-05-14T12:04:24.773Z,808.33
2023-05-14T12:06:54.044Z,717.60
2023-05-14T12:09:28.116Z,724.80
2023-05-14T12:11:58.001Z,674.17
2023-05-14T12:14:26.867Z,727.53
2023-05-14T12:16:55.308Z,698.13
2023-05-14T12:19:25.709Z,826.70
2023-05-14T12:21:54.149Z,699.70
2023-05-14T12:24:22.968Z,730.17
2023-05-14T12:26:52.675Z,769.90
2023-05-14T12:29:22.936Z,743.20
2023-05-14T12:31:52.300Z,731.97
2023-05-14T12:34:20.939Z,708.42
2023-05-14T12:36:49.796Z,697.33
2023-05-14T12:39:18.516Z,707.60
2023-05-14T12:41:49.161Z,738.83
2023-05-14T12:44:18.044Z,739.70
2023-05-14T12:46:47.811Z,739.60
2023-05-14T12:49:16.418Z,735.25
2023-05-14T12:51:45.793Z,722.95
2023-05-14T12:54:15.819Z,728.60
2023-05-14T12:56:44.446Z,716.30
2023-05-14T12:59:12.929Z,708.33
2023-05-14T13:01:42.017Z,786.00
2023-05-14T13:04:13.830Z,697.50
2023-05-14T13:06:42.449Z,722.63
2023-05-14T13:09:11.294Z,688.90
2023-05-14T13:11:39.888Z,710.10
2023-05-14T13:14:12.506Z,717.45
2023-05-14T13:16:40.958Z,711.08
2023-05-14T13:19:11.146Z,780.47
2023-05-14T13:21:40.093Z,716.70
2023-05-14T13:24:10.060Z,827.83
2023-05-14T13:26:38.779Z,732.70
2023-05-14T13:29:07.575Z,786.17
2023-05-14T13:31:36.426Z,729.60
2023-05-14T13:34:05.894Z,703.50
2023-05-14T13:36:39.441Z,714.35
2023-05-14T13:39:08.172Z,733.38
2023-05-14T13:41:37.954Z,734.08
2023-05-14T13:44:07.071Z,820.75
2023-05-14T13:46:35.844Z,739.40
2023-05-14T13:49:04.367Z,776.10
2023-05-14T13:51:33.155Z,732.33
2023-05-14T13:54:03.586Z,748.70
2023-05-14T13:56:35.172Z,719.17
2023-05-14T13:59:04.019Z,799.67
2023-05-14T14:01:32.735Z,790.17
2023-05-14T14:04:01.309Z,734.20
2023-05-14T14:06:32.039Z,744.80
2023-05-14T14:09:01.878Z,720.03
2023-05-14T14:11:30.390Z,751.20
2023-05-14T14:13:58.855Z,758.90
2023-05-14T14:16:27.328Z,762.67
2023-05-14T14:18:55.648Z,807.15
2023-05-14T14:21:24.051Z,799.30
2023-05-14T14:23:52.402Z,813.80
2023-05-14T14:26:22.298Z,740.40
2023-05-14T14:28:50.692Z,748.30
2023-05-14T14:31:19.133Z,721.60
2023-05-14T14:33:47.653Z,736.53
2023-05-14T14:36:16.020Z,713.47
2023-05-14T14:38:44.378Z,720.25
2023-05-14T14:41:12.798Z,723.83
2023-05-14T14:43:43.432Z,743.92
2023-05-14T14:46:12.004Z,746.75
2023-05-14T14:48:41.349Z,727.22
2023-05-14T14:51:10.502Z,771.08
2023-05-14T14:53:40.345Z,735.03
2023-05-14T14:56:09.083Z,751.53
2023-05-14T14:58:37.517Z,707.38
2023-05-14T15:01:07.641Z,742.15
2023-05-14T15:03:36.264Z,723.85
2023-05-14T15:06:04.830Z,713.35
2023-05-14T15:08:35.353Z,717.92
2023-05-14T15:11:06.378Z,714.90
2023-05-14T15:13:36.898Z,727.30
2023-05-14T15:16:07.276Z,709.45
2023-05-14T15:18:35.939Z,717.35
2023-05-14T15:21:04.668Z,710.10
2023-05-14T15:23:33.499Z,810.45
2023-05-14T15:26:02.868Z,687.97
2023-05-14T15:28:31.555Z,756.22
2023-05-14T15:31:02.562Z,712.72
2023-05-14T15:33:33.947Z,727.72
2023-05-14T15:36:05.900Z,681.58
2023-05-14T15:38:35.502Z,724.90
2023-05-14T15:41:03.953Z,730.85
2023-05-14T15:43:32.428Z,683.75
2023-05-14T15:46:00.969Z,740.20
2023-05-14T15:48:30.721Z,785.28
2023-05-14T15:50:59.119Z,711.80
2023-05-14T15:53:28.367Z,710.38
2023-05-14T19:02:48.590Z,687.53
2023-05-14T19:05:17.423Z,664.33
2023-05-14T19:07:48.111Z,653.60
2023-05-14T19:10:16.827Z,632.92
2023-05-14T19:12:45.316Z,638.90
2023-05-14T19:15:13.777Z,653.08
2023-05-14T19:17:42.647Z,629.72
2023-05-14T19:20:13.477Z,641.20
2023-05-14T19:22:41.997Z,628.67
2023-05-14T19:25:11.232Z,682.45
2023-05-14T19:27:40.026Z,631.28
2023-05-14T19:30:09.679Z,667.03
2023-05-14T19:32:38.206Z,648.08
2023-05-14T19:35:07.459Z,684.90
2023-05-14T19:37:37.321Z,672.40
2023-05-14T19:40:06.640Z,658.53
2023-05-14T19:42:35.139Z,678.20
2023-05-14T19:45:03.957Z,664.50
2023-05-14T19:47:32.390Z,648.92
2023-05-14T19:50:00.829Z,654.15
2023-05-14T19:52:32.057Z,672.70
2023-05-14T19:55:02.054Z,697.80
2023-05-14T19:57:30.630Z,656.05
2023-05-14T20:00:00.767Z,639.05
2023-05-14T20:02:29.544Z,654.67
2023-05-14T20:04:58.155Z,649.83
2023-05-14T20:07:27.009Z,616.33
2023-05-14T20:09:55.634Z,618.53
2023-05-14T20:12:27.644Z,641.08
2023-05-14T20:14:58.647Z,652.80
2023-05-14T20:17:28.786Z,686.05
2023-05-14T20:19:57.469Z,655.00
2023-05-14T20:22:28.636Z,642.03
2023-05-14T20:24:57.093Z,674.40
2023-05-14T20:27:26.943Z,641.40
2023-05-14T20:29:55.546Z,644.88
2023-05-14T20:32:28.750Z,643.15
2023-05-14T20:35:02.439Z,653.28
2023-05-14T20:37:32.315Z,628.65
2023-05-14T20:40:02.178Z,647.70
2023-05-14T20:42:32.539Z,677.67
2023-05-14T20:45:01.034Z,624.72
2023-05-14T20:47:34.261Z,643.83
2023-05-14T20:50:03.168Z,604.90
2023-05-14T20:52:32.035Z,627.33
2023-05-14T20:55:01.951Z,681.58
2023-05-14T20:57:32.586Z,642.55
2023-05-14T21:00:01.848Z,633.20
2023-05-14T21:02:30.959Z,694.97
2023-05-14T21:04:59.682Z,647.97
2023-05-14T21:07:29.005Z,690.78
2023-05-14T21:09:57.467Z,678.17
2023-05-14T21:12:26.170Z,651.95
2023-05-14T21:14:56.072Z,654.10
2023-05-14T21:17:24.656Z,645.80
2023-05-14T21:19:53.219Z,628.45
2023-05-14T21:22:22.588Z,653.28
2023-05-14T21:24:52.012Z,651.88
2023-05-14T21:27:20.457Z,631.80
2023-05-14T21:29:48.860Z,633.90
2023-05-14T21:32:20.130Z,650.22
2023-05-14T21:34:48.548Z,644.03
2023-05-14T21:37:17.307Z,693.50
2023-05-14T21:39:45.759Z,637.78
2023-05-14T21:42:14.125Z,645.15
2023-05-14T21:44:42.537Z,671.13
2023-05-14T21:47:11.441Z,708.35
2023-05-14T21:49:41.802Z,637.65
2023-05-14T21:52:10.232Z,668.55
2023-05-14T21:54:38.992Z,691.75
2023-05-14T21:57:07.565Z,693.97
2023-05-14T21:59:36.212Z,648.10
2023-05-14T22:02:07.218Z,682.63
2023-05-14T22:04:36.782Z,677.00
2023-05-14T22:07:06.742Z,660.97
2023-05-14T22:09:35.085Z,702.40
2023-05-14T22:12:03.506Z,669.40
2023-05-14T22:14:31.946Z,634.10
2023-05-14T22:17:00.518Z,630.25
2023-05-14T22:19:29.095Z,668.03
2023-05-14T22:21:57.614Z,645.42
2023-05-14T22:24:27.664Z,649.25
2023-05-14T22:26:56.074Z,655.78
2023-05-14T22:29:24.650Z,681.70
2023-05-14T22:31:53.238Z,645.70
2023-05-14T22:34:21.642Z,631.85
2023-05-14T22:36:49.997Z,647.05
2023-05-14T22:39:18.992Z,639.97
2023-05-14T22:41:54.731Z,681.20
2023-05-14T22:44:23.205Z,636.60
2023-05-14T22:46:51.739Z,676.30
2023-05-14T22:49:20.266Z,652.28
2023-05-14T22:51:48.710Z,644.47
2023-05-14T22:54:17.630Z,664.65
2023-05-14T22:56:48.157Z,673.53
2023-05-14T22:59:16.555Z,663.17
2023-05-14T23:01:45.004Z,666.88
2023-05-14T23:04:13.584Z,667.33
2023-05-14T23:06:43.090Z,697.95
2023-05-14T23:09:11.528Z,700.47
2023-05-14T23:11:39.980Z,682.83
2023-05-14T23:14:09.799Z,683.53
2023-05-14T23:16:38.619Z,680.45
2023-05-14T23:19:07.335Z,687.67
2023-05-14T23:21:36.271Z,681.85
2023-05-14T23:24:05.060Z,694.78
2023-05-14T23:26:33.625Z,701.53
2023-05-14T23:29:01.974Z,681.58
2023-05-14T23:31:32.178Z,643.65
2023-05-14T23:34:00.686Z,686.22
2023-05-14T23:36:31.417Z,666.65
2023-05-14T23:39:00.146Z,689.35
2023-05-14T23:41:28.664Z,658.03
2023-05-14T23:43:57.358Z,676.70
2023-05-14T23:46:25.827Z,656.72
2023-05-14T23:48:57.074Z,646.75
2023-05-14T23:51:25.835Z,651.67
2023-05-14T23:53:58.232Z,630.72
2023-05-14T23:56:27.447Z,671.17
2023-05-14T23:58:56.251Z,658.78
